Time;durP1;ratioP1;P1;durP2;ratioP2;P2;SDS_P1;SDS_P2;PMS_P1;PMS_P2;Temp;Humidity;BMP_temperature;BMP_pressure;BME280_temperature;BME280_humidity;BME280_pressure;Samples;Min_cycle;Max_cycle;Signal;HPM_P1;HPM_P2
2023/12/29 18:41:29;;;;;;;174.05;53.97;;;15.80;63.20;;;;;;5050602;27;20493;-55
2023/12/29 18:43:54;;;;;;;184.98;49.88;;;18.50;64.00;;;;;;5025148;28;20094;-49
2023/12/29 18:46:21;;;;;;;171.18;49.35;;;20.30;59.00;;;;;;5034694;28;20449;-59
2023/12/29 18:48:47;;;;;;;170.02;49.10;;;21.70;56.00;;;;;;5026553;28;20041;-52
2023/12/29 18:51:12;;;;;;;162.23;48.13;;;22.80;53.90;;;;;;5033215;28;20095;-56
2023/12/29 18:53:38;;;;;;;171.13;48.03;;;23.60;52.40;;;;;;5029870;28;20041;-58
2023/12/29 18:56:07;;;;;;;148.65;45.40;;;24.20;51.30;;;;;;5017552;28;20041;-59
2023/12/29 18:58:36;;;;;;;149.80;44.85;;;24.70;50.40;;;;;;5020917;28;20724;-57
2023/12/29 19:01:04;;;;;;;130.10;41.45;;;25.10;50.20;;;;;;5023841;28;20053;-50
2023/12/29 19:03:32;;;;;;;135.80;43.65;;;25.50;49.10;;;;;;5028982;28;20037;-53
2023/12/29 19:05:58;;;;;;;131.02;42.13;;;25.70;48.60;;;;;;5021229;28;20045;-58
2023/12/29 19:08:25;;;;;;;144.77;42.42;;;26.00;48.20;;;;;;5033236;28;20038;-58
2023/12/29 19:10:50;;;;;;;128.98;39.92;;;26.20;47.90;;;;;;5030772;28;20792;-61
2023/12/29 19:13:16;;;;;;;129.45;39.42;;;26.40;47.60;;;;;;4991689;28;64843;-62
2023/12/29 19:17:22;;;;;;;124.57;38.63;;;26.50;47.20;;;;;;5015158;28;60436;-65
2023/12/29 19:21:41;;;;;;;;;;;26.80;46.60;;;;;;5007938;28;20580;-63
2023/12/29 19:24:10;;;;;;;133.52;35.60;;;26.90;47.70;;;;;;5005876;28;19933;-62
2023/12/29 19:26:37;;;;;;;136.23;37.80;;;26.90;46.60;;;;;;5013157;28;20054;-60
2023/12/29 19:29:04;;;;;;;131.40;37.63;;;27.00;46.50;;;;;;5008053;28;20057;-61
2023/12/29 19:31:31;;;;;;;133.65;37.58;;;27.00;46.30;;;;;;5004057;28;20975;-62
2023/12/29 19:33:58;;;;;;;113.80;36.28;;;27.10;46.20;;;;;;4997066;28;20471;-60
2023/12/29 19:38:51;;;;;;;5.28;2.70;;;27.10;45.10;;;;;;4945721;28;20501;-61
2023/12/29 19:41:21;;;;;;;3.17;1.75;;;25.30;41.40;;;;;;4938074;28;20051;-59
2023/12/29 19:43:49;;;;;;;4.95;2.17;;;23.10;40.90;;;;;;4893622;28;834315;-60
2023/12/29 19:46:17;;;;;;;3.58;2.03;;;21.20;41.30;;;;;;4903540;28;20070;-60
2023/12/29 19:48:47;;;;;;;4.30;2.03;;;19.60;42.20;;;;;;4905018;28;20087;-59
2023/12/29 19:55:01;;;;;;;3.45;1.80;;;18.20;43.40;;;;;;5039388;27;20465;-59
2023/12/29 19:57:28;;;;;;;5.57;1.73;;;15.50;46.00;;;;;;5027223;28;78149;-59
2023/12/29 20:10:04;;;;;;;4.25;1.60;;;14.80;46.60;;;;;;4998541;27;21851;-61
2023/12/29 20:12:31;;;;;;;4.53;1.52;;;12.90;49.00;;;;;;4986349;28;20053;-59
2023/12/29 20:14:57;;;;;;;5.80;1.20;;;12.80;49.00;;;;;;4961684;28;97197;-60
2023/12/29 20:21:35;;;;;;;4.13;2.05;;;12.70;48.50;;;;;;5084446;27;20844;-65
2023/12/29 20:24:02;;;;;;;4.13;2.13;;;12.40;49.20;;;;;;5038713;28;21981;-65
2023/12/29 20:26:35;;;;;;;8.45;2.92;;;12.40;49.40;;;;;;5058154;28;20055;-63
2023/12/29 20:29:05;;;;;;;4.90;2.20;;;12.40;49.30;;;;;;5034972;28;20130;-66
2023/12/29 20:31:34;;;;;;;3.55;1.75;;;12.40;49.30;;;;;;5050359;28;20052;-65
2023/12/29 20:34:01;;;;;;;5.30;2.25;;;12.40;49.30;;;;;;5055527;28;20663;-64
2023/12/29 20:36:29;;;;;;;6.68;1.92;;;12.40;49.30;;;;;;5063481;28;20075;-62
2023/12/29 20:38:58;;;;;;;3.03;1.67;;;12.40;49.30;;;;;;5061649;28;20048;-64
2023/12/29 20:41:27;;;;;;;5.18;2.33;;;12.40;49.30;;;;;;5046016;28;20066;-63
2023/12/29 20:43:57;;;;;;;2.83;1.73;;;12.40;49.30;;;;;;5050926;28;20052;-62
2023/12/29 20:46:25;;;;;;;5.70;1.90;;;12.40;49.30;;;;;;5063194;28;20104;-64
2023/12/29 20:48:52;;;;;;;2.92;1.60;;;12.50;49.30;;;;;;5059189;28;20072;-65
2023/12/29 20:51:19;;;;;;;7.72;2.67;;;12.50;49.30;;;;;;5064247;28;20052;-62
2023/12/29 20:53:49;;;;;;;6.68;1.85;;;12.50;49.30;;;;;;5049082;28;20502;-65
2023/12/29 20:56:18;;;;;;;3.45;2.05;;;12.50;49.20;;;;;;5055485;28;20393;-64
2023/12/29 20:58:46;;;;;;;3.75;1.52;;;12.50;49.20;;;;;;5064561;28;20654;-64
2023/12/29 21:01:18;;;;;;;6.68;2.30;;;12.50;49.10;;;;;;5056677;28;20045;-64
2023/12/29 21:03:45;;;;;;;4.60;1.95;;;12.50;49.20;;;;;;5020357;28;20542;-64
2023/12/29 21:06:21;;;;;;;2.05;1.67;;;12.50;49.20;;;;;;5031870;28;20136;-66
2023/12/29 21:08:49;;;;;;;3.10;1.63;;;12.50;49.10;;;;;;5027638;28;20181;-65
2023/12/29 21:11:17;;;;;;;6.55;2.30;;;12.50;49.10;;;;;;5030050;28;20053;-65
2023/12/29 21:13:44;;;;;;;3.53;1.70;;;12.50;49.20;;;;;;5026931;28;20959;-65
2023/12/29 21:16:16;;;;;;;1.90;1.35;;;12.40;49.20;;;;;;5030698;28;20476;-66
2023/12/29 21:18:43;;;;;;;2.10;1.42;;;12.50;49.20;;;;;;5028208;28;20056;-65
2023/12/29 21:21:12;;;;;;;7.35;2.42;;;12.40;49.20;;;;;;5023168;28;20057;-64
2023/12/29 21:23:39;;;;;;;3.85;2.42;;;12.50;49.30;;;;;;5025079;28;20049;-63
2023/12/29 21:26:07;;;;;;;2.13;1.30;;;12.50;49.30;;;;;;5010191;28;20227;-65
2023/12/29 21:28:34;;;;;;;3.72;1.90;;;12.50;49.20;;;;;;5030164;28;20107;-65
2023/12/29 21:31:02;;;;;;;4.25;1.77;;;12.50;49.20;;;;;;5028581;28;20045;-63
2023/12/29 21:33:30;;;;;;;2.85;1.85;;;12.60;49.30;;;;;;5013481;28;20360;-64
2023/12/29 21:35:57;;;;;;;5.97;2.20;;;12.60;49.30;;;;;;5009706;28;20076;-65
2023/12/29 21:38:24;;;;;;;6.88;3.03;;;12.60;49.30;;;;;;5003554;28;20057;-66
2023/12/29 21:40:51;;;;;;;3.03;1.50;;;12.60;49.30;;;;;;5018130;28;20058;-68
2023/12/29 21:43:17;;;;;;;4.97;1.60;;;12.60;49.20;;;;;;5015706;28;20057;-66
2023/12/29 21:45:45;;;;;;;21.98;2.15;;;12.60;49.10;;;;;;5006854;28;20057;-66
2023/12/29 21:48:16;;;;;;;3.95;1.70;;;12.60;49.10;;;;;;5016444;28;20593;-66
2023/12/29 21:50:44;;;;;;;3.20;1.80;;;12.60;49.10;;;;;;5012159;28;20108;-66
2023/12/29 21:53:11;;;;;;;4.53;1.52;;;12.60;49.20;;;;;;5006200;28;20049;-66
2023/12/29 21:55:38;;;;;;;4.50;1.88;;;12.50;49.20;;;;;;5013745;28;20397;-66
2023/12/29 21:58:14;;;;;;;2.45;1.60;;;12.50;49.20;;;;;;5016027;28;20119;-67
2023/12/29 22:00:44;;;;;;;3.40;1.55;;;12.50;49.20;;;;;;4996104;28;20053;-67
2023/12/29 22:03:13;;;;;;;3.75;1.85;;;12.50;49.20;;;;;;5020487;28;20072;-67
2023/12/29 22:05:40;;;;;;;5.38;2.22;;;12.50;49.20;;;;;;5013841;28;20149;-66
2023/12/29 22:08:07;;;;;;;4.10;1.65;;;12.50;49.10;;;;;;4987040;28;20053;-65
2023/12/29 22:10:34;;;;;;;3.17;1.60;;;12.50;49.00;;;;;;5015949;28;20049;-67
2023/12/29 22:13:01;;;;;;;3.25;1.67;;;12.40;49.00;;;;;;5009372;28;20046;-68
2023/12/29 22:15:29;;;;;;;4.15;1.95;;;12.40;49.10;;;;;;5013828;28;20041;-68
2023/12/29 22:17:56;;;;;;;5.10;1.83;;;12.40;49.10;;;;;;4981109;28;20056;-67
2023/12/29 22:20:23;;;;;;;5.47;2.28;;;12.30;49.10;;;;;;5016744;28;20057;-67
2023/12/29 22:22:53;;;;;;;3.00;2.08;;;12.30;49.10;;;;;;5018245;28;20541;-67
2023/12/29 22:25:20;;;;;;;31.10;8.40;;;12.30;49.10;;;;;;5008760;28;20080;-66
2023/12/29 22:27:47;;;;;;;7.57;2.53;;;12.30;49.10;;;;;;5006044;28;20055;-66
2023/12/29 22:30:14;;;;;;;3.42;1.90;;;12.20;49.10;;;;;;5012817;28;20063;-67
2023/12/29 22:32:42;;;;;;;3.92;2.22;;;12.20;49.20;;;;;;5020192;28;20417;-66
2023/12/29 22:35:09;;;;;;;4.65;1.98;;;12.20;49.90;;;;;;5016274;28;20053;-64
2023/12/29 22:37:37;;;;;;;19.67;2.05;;;12.20;49.30;;;;;;5012972;28;20041;-69
2023/12/29 22:40:05;;;;;;;2.97;1.65;;;12.30;49.30;;;;;;5008277;28;22104;-65
2023/12/29 22:42:34;;;;;;;2.40;1.75;;;12.30;49.30;;;;;;5012796;28;20053;-66
2023/12/29 22:45:02;;;;;;;4.93;1.88;;;12.30;49.20;;;;;;5015881;28;20053;-67
2023/12/29 22:47:29;;;;;;;3.08;1.50;;;12.40;49.30;;;;;;5011466;28;20045;-66
2023/12/29 22:49:56;;;;;;;2.88;1.63;;;12.40;49.30;;;;;;4995869;28;20151;-66
2023/12/29 22:52:23;;;;;;;5.43;1.90;;;12.40;49.20;;;;;;5012276;28;20104;-66
2023/12/29 22:54:50;;;;;;;3.38;2.00;;;12.40;49.30;;;;;;5020866;28;20060;-67
2023/12/29 22:57:17;;;;;;;3.40;1.50;;;12.50;49.20;;;;;;5006929;28;20057;-67
2023/12/29 22:59:45;;;;;;;3.13;1.45;;;12.50;49.20;;;;;;5007262;28;20545;-67
2023/12/29 23:02:12;;;;;;;3.75;1.58;;;12.60;49.20;;;;;;5010227;28;20073;-65
2023/12/29 23:04:39;;;;;;;2.88;1.60;;;12.70;49.20;;;;;;5019582;28;20744;-66
2023/12/29 23:07:06;;;;;;;2.47;1.70;;;12.70;49.10;;;;;;5020909;28;20132;-67
2023/12/29 23:09:38;;;;;;;1.98;1.73;;;12.80;49.00;;;;;;5007775;28;20494;-66
2023/12/29 23:12:09;;;;;;;2.70;1.55;;;12.80;49.00;;;;;;5013935;28;20053;-65
2023/12/29 23:14:39;;;;;;;7.85;2.10;;;12.70;48.90;;;;;;5024796;28;20049;-66
2023/12/29 23:17:10;;;;;;;3.20;1.52;;;12.80;49.00;;;;;;5015945;28;20124;-65
2023/12/29 23:19:37;;;;;;;2.63;1.83;;;12.80;49.00;;;;;;5003359;28;20056;-67
2023/12/29 23:22:04;;;;;;;4.07;2.20;;;12.90;48.90;;;;;;5007037;28;20535;-66
2023/12/29 23:24:31;;;;;;;4.72;2.05;;;13.00;48.90;;;;;;5015498;28;20633;-67
2023/12/29 23:26:58;;;;;;;4.90;1.98;;;13.00;48.80;;;;;;5006712;28;20061;-66
2023/12/29 23:29:25;;;;;;;3.67;2.15;;;13.00;48.80;;;;;;5014703;28;20230;-65
2023/12/29 23:31:53;;;;;;;5.22;2.15;;;13.00;48.70;;;;;;4996612;28;20050;-66
2023/12/29 23:34:21;;;;;;;2.83;1.85;;;13.00;48.70;;;;;;5015633;28;20957;-66
2023/12/29 23:36:50;;;;;;;4.40;2.03;;;12.90;48.60;;;;;;5011693;28;20048;-66
2023/12/29 23:39:18;;;;;;;9.32;2.33;;;12.90;48.70;;;;;;5017602;28;20169;-64
2023/12/29 23:41:45;;;;;;;2.63;1.88;;;12.80;48.70;;;;;;5003237;28;20145;-67
2023/12/29 23:44:12;;;;;;;4.13;2.42;;;12.70;48.80;;;;;;5011902;28;20235;-69
2023/12/29 23:46:39;;;;;;;6.55;2.08;;;12.70;48.80;;;;;;4998214;28;20056;-67
2023/12/29 23:49:06;;;;;;;2.65;1.85;;;12.60;48.90;;;;;;4985630;28;20435;-65
2023/12/29 23:51:34;;;;;;;4.22;2.33;;;12.60;48.90;;;;;;5009462;28;20207;-65
2023/12/29 23:55:38;;;;;;;3.50;1.35;;;12.60;48.90;;;;;;4978285;27;1278744;-65
2023/12/29 23:58:06;;;;;;;2.28;1.33;;;12.50;48.90;;;;;;5078371;27;21060;-64
